Latest Weather Observations for Cape Leeuwin

IDW60801

Issued at 7:02 am WST Wednesday 25 May 2016 (issued every 30 minutes, with the page automatically refreshed every 10 minutes)

About weather observations | Map of weather stations | Latest weather observations for WA | Other Formats
Station Details ID: 009518 Name: CAPE LEEUWIN Lat: -34.37 Lon: 115.14 Height: 13.0 m
Data from the previous 72 hours. | See also: Recent months at Cape Leeuwin
Date/Time
WST
Temp
°C
App
Temp
°C
Dew
Point
Rel
Hum
%
Delta-T
°C
Wind Press
QNH
hPa
Press
MSL
hPa
Rain
since 9 am
mm
Dir
 
Spd
km/h
Gust
km/h
Spd
kts
Gust
kts
25/07:00am 15.4 8.0 8.3 62 3.6 W 37 44 20 24 1009.1 1009.1 1.8
25/06:30am 15.4 8.4 8.5 63 3.5 W 35 44 19 24 1008.9 1008.9 1.8
25/06:00am 15.1 7.5 9.1 67 3.1 W 39 48 21 26 1008.8 1008.8 1.8
25/05:30am 14.9 7.4 10.7 76 2.2 W 41 56 22 30 1008.5 1008.5 1.8
25/05:27am 15.4 8.2 10.5 72 2.6 W 39 56 21 30 1008.4 1008.4 1.8
25/05:00am 14.2 9.0 10.4 78 2.0 W 28 37 15 20 1008.5 1008.5 1.8
25/04:40am 14.1 7.9 11.5 84 1.4 W 35 54 19 29 1008.5 1008.5 1.4
25/04:30am 14.9 9.0 10.5 75 2.3 WNW 32 41 17 22 1008.3 1008.3 1.4
25/04:28am 15.2 9.5 11.9 81 1.8 WNW 33 41 18 22 1008.3 1008.3 1.4
25/04:00am 15.1 8.1 9.9 71 2.7 W 37 44 20 24 1008.3 1008.3 1.4
25/03:30am 14.3 5.9 10.9 80 1.8 WSW 46 56 25 30 1008.5 1008.5 1.4
25/03:00am 14.9 7.9 9.9 72 2.6 W 37 44 20 24 1008.5 1008.5 1.4
25/02:36am 14.3 8.1 10.1 76 2.2 W 33 52 18 28 1008.5 1008.5 1.4
25/02:30am 14.7 9.0 9.9 73 2.5 WNW 30 43 16 23 1008.5 1008.5 1.4
25/02:21am 14.6 8.6 10.8 78 2.0 WNW 33 44 18 24 1008.6 1008.6 1.0
25/02:00am 14.4 6.6 9.6 73 2.5 W 41 50 22 27 1008.5 1008.5 1.0
25/01:40am 13.9 8.4 10.7 81 1.7 W 30 48 16 26 1008.5 1008.5 1.0
25/01:30am 14.0 7.5 10.2 78 2.0 W 35 50 19 27 1008.5 1008.5 1.0
25/01:00am 15.4 8.9 9.0 65 3.3 W 33 43 18 23 1008.6 1008.6 0.2
25/12:30am 14.8 6.8 9.1 68 2.9 W 41 52 22 28 1008.6 1008.6 0.2
25/12:00am 15.1 7.5 9.1 67 3.1 W 39 46 21 25 1008.7 1008.7 0.2
 
Date/Time
WST
Temp
°C
App
Temp
°C
Dew
Point
Rel
Hum
%
Delta-T
°C
Wind Press
QNH
hPa
Press
MSL
hPa
Rain
since 9 am
mm
Dir
 
Spd
km/h
Gust
km/h
Spd
kts
Gust
kts
24/11:49pm 14.1 8.5 10.3 78 2.0 W 30 48 16 26 1008.9 1008.9 0.2
24/11:30pm 14.0 7.2 10.8 81 1.7 WSW 37 50 20 27 1009.0 1009.0 0.2
24/11:00pm 13.6 7.0 9.9 78 1.9 W 35 48 19 26 1009.0 1009.0 0.2
24/10:34pm 14.6 7.7 10.4 76 2.2 W 37 50 20 27 1008.8 1008.8 0.2
24/10:30pm 14.1 7.1 10.1 77 2.1 W 37 50 20 27 1008.9 1008.9 0.2
24/10:29pm 14.3 7.3 10.1 76 2.2 W 37 50 20 27 1008.9 1008.9 0.2
24/10:00pm 15.0 6.3 8.5 65 3.3 W 44 54 24 29 1008.8 1008.8 0.0
24/09:44pm 15.9 9.1 9.1 64 3.5 W 35 54 19 29 1008.6 1008.6 0.0
24/09:30pm 15.6 8.3 7.3 57 4.1 W 35 43 19 23 1008.7 1008.7 0.0
24/09:00pm 15.7 8.1 7.5 58 4.1 W 37 46 20 25 1008.7 1008.7 0.0
24/08:30pm 15.7 7.8 8.0 60 3.9 W 39 46 21 25 1008.7 1008.7 0.0
24/08:00pm 15.4 7.7 8.5 63 3.5 W 39 48 21 26 1008.7 1008.7 0.0
24/07:30pm 14.7 4.6 7.2 61 3.7 W 50 57 27 31 1008.5 1008.5 0.0
24/07:18pm 14.9 6.7 9.7 71 2.7 W 43 61 23 33 1008.4 1008.4 0.0
24/07:00pm 14.1 6.7 9.9 76 2.2 W 39 52 21 28 1008.5 1008.5 0.0
24/06:51pm 14.0 6.4 10.4 79 1.9 WSW 41 56 22 30 1008.4 1008.4 0.0
24/06:45pm 14.7 8.1 10.1 74 2.4 WSW 35 56 19 30 1008.5 1008.5 0.0
24/06:41pm 15.2 9.3 9.2 67 3.1 W 30 56 16 30 1008.2 1008.2 0.0
24/06:30pm 14.7 8.3 9.5 71 2.7 WSW 33 41 18 22 1008.1 1008.1 0.0
24/06:05pm 14.6 6.1 9.4 71 2.7 W 44 63 24 34 1007.7 1007.7 0.0
24/06:00pm 15.7 7.9 8.4 62 3.7 W 39 54 21 29 1007.7 1007.7 0.0
24/05:33pm 15.5 7.2 7.7 59 3.9 W 41 61 22 33 1007.3 1007.3 0.0
24/05:30pm 15.7 8.0 8.7 63 3.6 W 39 52 21 28 1007.3 1007.3 0.0
24/05:00pm 16.0 8.0 7.4 56 4.3 W 39 46 21 25 1007.2 1007.2 0.0
24/04:30pm 15.7 9.0 8.0 60 3.9 W 33 46 18 25 1007.1 1007.1 0.0
24/04:00pm 16.1 7.9 6.5 53 4.7 W 39 44 21 24 1006.9 1006.9 0.0
24/03:30pm 15.9 6.2 7.5 57 4.2 W 48 56 26 30 1006.5 1006.4 0.0
24/03:00pm 16.7 8.1 6.3 50 5.1 W 41 48 22 26 1006.2 1006.1 0.0
24/02:30pm 15.0 6.0 7.3 60 3.8 W 44 65 24 35 1006.1 1006.0 0.0
24/02:25pm 16.1 8.5 8.9 62 3.7 WSW 39 57 21 31 1005.9 1005.8 0.0
24/02:00pm 16.5 7.7 7.1 53 4.7 W 43 50 23 27 1005.8 1005.7 0.0
24/01:30pm 16.5 8.3 8.0 57 4.3 WSW 41 50 22 27 1005.6 1005.5 0.0
24/01:00pm 17.0 7.9 5.9 48 5.4 W 43 52 23 28 1005.3 1005.2 0.0
24/12:30pm 16.1 6.0 7.3 56 4.4 W 50 61 27 33 1005.4 1005.3 0.0
24/12:00pm 16.6 7.4 6.4 51 5.0 W 44 54 24 29 1005.4 1005.3 0.0
24/11:30am 16.5 6.8 7.5 55 4.5 W 48 57 26 31 1005.5 1005.4 0.0
24/11:00am 16.3 5.7 6.8 53 4.7 WSW 52 63 28 34 1005.4 1005.3 0.0
24/10:30am 16.2 6.1 7.2 55 4.5 W 50 59 27 32 1005.1 1005.0 0.0
24/10:00am 15.7 4.4 7.3 57 4.2 W 56 65 30 35 1004.8 1004.7 0.0
24/09:30am 15.8 6.3 9.7 67 3.2 WSW 50 61 27 33 1004.5 1004.4 0.0
24/09:00am 16.1 4.8 7.8 58 4.2 W 57 67 31 36 1003.8 1003.7 28.2
24/08:30am 15.3 4.3 9.1 66 3.2 WSW 57 67 31 36 1003.5 1003.4 28.2
24/08:04am 15.8 4.4 7.6 58 4.1 WSW 57 76 31 41 1003.0 1002.9 28.2
24/08:00am 15.8 4.1 7.9 59 4.0 WSW 59 76 32 41 1002.9 1002.8 28.2
24/07:30am 15.9 5.0 9.6 66 3.3 W 57 67 31 36 1002.4 1002.3 28.2
24/07:00am 15.4 3.7 7.8 60 3.8 WSW 59 72 32 39 1001.8 1001.7 28.2
24/06:30am 16.1 3.8 6.8 54 4.6 W 61 74 33 40 1000.9 1000.8 28.2
24/06:00am 16.0 3.9 7.9 58 4.1 W 61 76 33 41 1000.4 1000.3 28.2
24/05:30am 15.6 4.1 10.3 70 2.8 W 61 74 33 40 1000.1 1000.0 28.2
24/05:00am 16.6 3.8 7.9 56 4.4 W 65 78 35 42 999.3 999.2 28.2
24/04:30am 16.7 3.9 9.5 62 3.8 W 67 82 36 44 998.8 998.7 28.2
24/04:00am 16.7 3.8 10.5 67 3.3 W 69 82 37 44 998.0 997.9 28.2
24/03:30am 17.0 4.7 11.5 70 3.0 W 67 82 36 44 997.6 997.5 28.0
24/03:00am 17.2 5.2 13.5 79 2.1 W 69 83 37 45 997.1 997.0 28.0
24/02:30am 16.8 5.5 14.4 86 1.4 W 67 80 36 43 996.5 996.4 28.0
24/02:19am 16.8 6.7 15.6 93 0.7 W 63 82 34 44 996.3 996.2 28.0
24/02:00am 16.3 6.1 15.4 94 0.5 WNW 63 74 34 40 996.3 996.2 27.6
24/01:46am 15.3 2.8 14.8 97 0.3 WNW 74 102 40 55 996.2 996.1 27.2
24/01:39am 16.3 3.2 15.3 94 0.6 NW 78 102 42 55 996.0 995.9 23.0
24/01:30am 18.6 6.6 17.1 91 0.9 NNW 76 95 41 51 994.4 994.3 22.6
24/01:00am 18.2 7.4 16.9 92 0.8 NNW 69 93 37 50 995.0 994.9 22.4
24/12:30am 17.6 7.4 16.3 92 0.8 NNW 65 83 35 45 995.6 995.5 20.6
24/12:00am 17.1 6.6 15.7 91 0.8 NNW 65 83 35 45 997.0 996.9 19.4
 
Date/Time
WST
Temp
°C
App
Temp
°C
Dew
Point
Rel
Hum
%
Delta-T
°C
Wind Press
QNH
hPa
Press
MSL
hPa
Rain
since 9 am
mm
Dir
 
Spd
km/h
Gust
km/h
Spd
kts
Gust
kts
23/11:30pm 17.0 6.1 15.6 91 0.8 NNW 67 87 36 47 997.7 997.6 17.6
23/11:00pm 17.0 8.4 16.0 94 0.6 NNW 56 78 30 42 998.9 998.8 14.8
23/10:30pm 17.3 8.8 15.4 88 1.1 N 54 72 29 39 998.8 998.7 9.6
23/10:00pm 16.7 6.7 15.0 90 1.0 N 61 98 33 53 999.4 999.3 6.4
23/09:30pm 17.0 7.3 14.8 87 1.3 N 59 87 32 47 1000.1 1000.0 4.0
23/09:00pm 17.3 9.2 15.3 88 1.2 NNW 52 70 28 38 1001.2 1001.1 2.0
23/08:30pm 17.0 9.4 14.8 87 1.3 N 48 70 26 38 1000.9 1000.8 1.2
23/08:00pm 16.8 10.1 14.5 86 1.3 N 43 65 23 35 1000.8 1000.7 0.6
23/07:30pm 17.0 8.8 14.2 83 1.6 N 50 72 27 39 1001.0 1000.9 0.4
23/07:01pm 18.1 9.9 12.8 71 3.0 N 48 67 26 36 1002.8 1002.7 0.0
23/07:00pm 18.1 9.4 12.6 70 3.1 N 50 67 27 36 1002.8 1002.7 0.0
23/06:37pm 18.0 10.5 12.2 69 3.2 N 43 65 23 35 1003.5 1003.4 0.0
23/06:30pm 17.9 10.4 12.1 69 3.2 N 43 59 23 32 1003.6 1003.5 0.0
23/06:04pm 18.0 9.8 11.6 66 3.5 N 46 70 25 38 1004.1 1004.0 0.0
23/06:00pm 17.9 10.1 11.7 67 3.4 N 44 61 24 33 1004.4 1004.3 0.0
23/05:30pm 17.8 9.6 11.8 68 3.3 N 46 69 25 37 1004.5 1004.4 0.0
23/05:00pm 18.0 10.4 11.8 67 3.4 N 43 67 23 36 1004.7 1004.6 0.0
23/04:30pm 18.0 11.4 12.6 70 3.0 N 39 65 21 35 1005.0 1004.9 0.0
23/04:00pm 17.9 11.8 13.1 73 2.7 N 37 59 20 32 1005.4 1005.3 0.0
23/03:33pm 18.0 12.2 14.0 77 2.3 N 37 56 20 30 1006.3 1006.2 0.0
23/03:30pm 18.1 11.9 13.9 76 2.4 N 39 56 21 30 1006.3 1006.2 0.0
23/03:05pm 18.6 12.9 14.1 75 2.6 N 37 56 20 30 1006.5 1006.4 0.0
23/03:00pm 18.5 13.3 14.4 77 2.4 N 35 48 19 26 1006.5 1006.4 0.0
23/02:30pm 18.5 12.9 14.5 77 2.3 N 37 57 20 31 1007.3 1007.3 0.0
23/02:23pm 18.0 13.3 14.2 78 2.2 N 32 57 17 31 1007.6 1007.6 0.0
23/02:00pm 18.2 12.5 14.2 77 2.3 N 37 54 20 29 1008.2 1008.2 0.0
23/01:59pm 18.2 13.0 14.4 78 2.2 N 35 54 19 29 1008.1 1008.1 0.0
23/01:30pm 17.8 11.1 14.7 82 1.8 N 43 57 23 31 1008.9 1008.9 0.0
23/01:00pm 18.4 13.5 14.2 76 2.4 N 33 43 18 23 1009.8 1009.8 0.0
23/12:30pm 19.5 12.4 13.4 68 3.5 NNW 43 61 23 33 1011.0 1011.0 0.0
23/12:00pm 19.5 10.0 12.3 63 4.0 NNW 54 74 29 40 1011.9 1011.9 0.0
23/11:35am 18.5 11.3 13.8 74 2.7 NNW 44 63 24 34 1012.7 1012.7 0.0
23/11:30am 18.4 11.5 14.0 75 2.5 NNW 43 54 23 29 1012.8 1012.8 0.0
23/11:00am 18.2 13.2 14.0 76 2.4 N 33 52 18 28 1013.7 1013.7 0.0
23/10:50am 17.7 10.7 13.8 78 2.2 N 43 61 23 33 1013.9 1013.9 0.0
23/10:30am 18.2 11.1 13.4 73 2.7 NNW 43 59 23 32 1013.9 1013.9 0.0
23/10:00am 17.2 12.2 13.9 81 1.9 N 33 54 18 29 1014.5 1014.5 0.0
23/09:56am 17.0 12.0 13.4 79 2.0 N 32 54 17 29 1014.5 1014.5 0.0
23/09:52am 17.1 13.5 14.1 82 1.7 N 26 43 14 23 1014.5 1014.5 0.0
23/09:30am 17.7 16.1 14.9 84 1.6 N 17 22 9 12 1014.7 1014.7 0.0
23/09:00am 16.0 13.5 14.1 88 1.1 N 20 28 11 15 1015.1 1015.1 3.0
23/08:30am 15.4 12.7 13.4 88 1.1 NNE 20 30 11 16 1015.4 1015.4 3.0
23/08:00am 15.3 13.2 13.5 89 1.0 N 17 24 9 13 1015.7 1015.7 3.0
23/07:30am 16.1 13.7 14.5 90 0.9 N 20 33 11 18 1016.1 1016.1 2.8
23/07:00am 17.1 12.1 14.1 82 1.7 NW 33 39 18 21 1016.0 1016.0 2.6
23/06:30am 16.4 12.2 14.7 90 1.0 NW 30 50 16 27 1016.3 1016.3 2.2
23/06:26am 16.5 14.2 14.6 88 1.1 NNW 20 50 11 27 1016.3 1016.3 2.2
23/06:15am 16.2 12.2 14.1 87 1.2 NW 28 35 15 19 1016.5 1016.5 2.0
23/06:00am 16.5 10.7 14.0 85 1.4 WNW 37 46 20 25 1016.4 1016.4 2.0
23/05:35am 16.7 14.4 14.2 85 1.4 NNW 19 43 10 23 1016.3 1016.3 1.8
23/05:30am 16.0 15.2 13.9 87 1.2 NNE 11 19 6 10 1016.3 1016.3 1.8
23/05:00am 16.4 13.2 14.3 87 1.2 NNW 24 33 13 18 1016.5 1016.5 1.8
23/04:30am 17.3 12.1 12.8 75 2.5 NW 32 35 17 19 1016.5 1016.5 1.4
23/04:00am 16.0 9.5 13.9 87 1.2 NW 41 54 22 29 1016.9 1016.9 1.4
23/03:52am 17.3 11.4 12.4 73 2.7 NW 35 54 19 29 1016.7 1016.7 1.4
23/03:30am 17.8 12.1 13.0 73 2.7 NW 35 43 19 23 1016.9 1016.9 1.4
23/03:00am 17.4 12.4 13.5 78 2.2 NW 32 39 17 21 1017.1 1017.1 1.4
23/02:30am 17.6 12.4 13.3 76 2.4 WNW 33 46 18 25 1017.2 1017.2 1.4
23/02:21am 17.3 12.7 13.6 79 2.1 WNW 30 46 16 25 1017.2 1017.2 1.4
23/02:00am 17.3 15.0 14.1 81 1.8 WNW 19 24 10 13 1017.5 1017.5 1.4
23/01:30am 17.2 13.7 13.5 79 2.1 WNW 24 30 13 16 1017.5 1017.5 1.4
23/01:00am 17.1 13.2 13.4 79 2.1 WNW 26 35 14 19 1017.7 1017.7 1.4
23/12:30am 16.4 13.8 13.9 85 1.4 NW 20 24 11 13 1018.1 1018.1 1.4
23/12:00am 16.4 13.9 14.1 86 1.3 NW 20 28 11 15 1018.2 1018.2 1.4
 
Date/Time
WST
Temp
°C
App
Temp
°C
Dew
Point
Rel
Hum
%
Delta-T
°C
Wind Press
QNH
hPa
Press
MSL
hPa
Rain
since 9 am
mm
Dir
 
Spd
km/h
Gust
km/h
Spd
kts
Gust
kts
22/11:30pm 15.8 12.9 14.0 89 1.0 NW 22 30 12 16 1018.2 1018.2 1.4
22/11:00pm 16.6 13.4 13.2 80 1.9 WNW 22 32 12 17 1018.2 1018.2 1.2
22/10:30pm 17.4 13.2 12.5 73 2.7 W 26 32 14 17 1018.4 1018.4 1.2
22/10:00pm 17.4 12.9 12.5 73 2.7 W 28 35 15 19 1018.5 1018.5 1.2
22/09:30pm 17.5 12.2 12.4 72 2.8 W 32 37 17 20 1018.6 1018.6 1.2
22/09:00pm 17.3 12.3 12.2 72 2.8 W 30 35 16 19 1018.5 1018.5 1.2
22/08:30pm 17.6 12.1 12.5 72 2.8 W 33 41 18 22 1018.2 1018.2 1.2
22/08:00pm 17.7 12.7 12.1 69 3.1 W 30 35 16 19 1017.7 1017.7 1.2
22/07:30pm 17.4 12.3 11.9 70 3.0 W 30 35 16 19 1017.0 1017.0 1.2
22/07:00pm 17.2 12.5 12.1 72 2.8 W 28 33 15 18 1016.5 1016.5 1.2
22/06:30pm 17.3 11.8 12.4 73 2.7 W 33 37 18 20 1016.3 1016.3 1.2
22/06:00pm 17.5 13.1 13.0 75 2.5 W 28 33 15 18 1015.7 1015.7 1.2
22/05:30pm 17.0 12.0 13.4 79 2.0 WSW 32 41 17 22 1015.5 1015.5 1.2
22/05:00pm 17.7 11.1 12.5 71 2.9 W 39 46 21 25 1015.4 1015.4 1.2
22/04:30pm 17.7 10.1 12.3 70 3.0 W 44 50 24 27 1015.5 1015.5 1.2
22/04:00pm 18.3 11.0 12.8 70 3.1 W 43 46 23 25 1015.5 1015.5 1.2
22/03:30pm 17.6 9.7 12.8 73 2.7 W 46 54 25 29 1015.0 1015.0 1.2
22/03:00pm 18.1 9.3 12.1 68 3.3 W 50 59 27 32 1014.6 1014.6 1.2
22/02:30pm 18.2 9.1 12.6 70 3.1 W 52 61 28 33 1014.5 1014.5 1.2
22/02:00pm 18.0 9.0 14.0 77 2.3 W 54 69 29 37 1014.0 1014.0 1.2
22/01:30pm 18.0 9.3 12.4 70 3.1 W 50 63 27 34 1013.8 1013.8 1.2
22/01:00pm 18.2 9.5 12.6 70 3.1 W 50 61 27 33 1013.8 1013.8 1.2
22/12:30pm 17.9 8.0 13.1 73 2.7 W 57 69 31 37 1013.6 1013.6 1.2
22/12:06pm 16.3 6.7 13.4 83 1.6 W 56 74 30 40 1013.7 1013.7 1.2
22/12:00pm 16.5 6.9 13.8 84 1.5 W 57 74 31 40 1013.7 1013.7 1.0
22/11:30am 17.3 8.5 13.4 78 2.2 W 52 67 28 36 1013.5 1013.5 1.0
22/11:15am 17.2 9.7 14.0 81 1.8 W 46 67 25 36 1013.4 1013.4 1.0
22/11:00am 16.8 8.9 13.8 82 1.7 W 48 63 26 34 1013.4 1013.4 1.0
22/10:48am 17.0 9.5 14.0 82 1.7 WNW 46 65 25 35 1013.1 1013.1 1.0
22/10:30am 16.9 7.6 13.1 78 2.1 W 54 63 29 34 1013.0 1013.0 1.0
22/10:00am 15.9 6.4 14.3 90 0.9 WNW 57 72 31 39 1012.8 1012.8 1.0
22/09:35am 15.8 7.5 13.7 87 1.2 WNW 50 69 27 37 1012.6 1012.6 0.4
22/09:30am 15.7 6.2 13.7 88 1.1 WNW 56 70 30 38 1012.7 1012.7 0.4
22/09:00am 15.8 6.1 13.5 86 1.3 WNW 57 74 31 40 1012.2 1012.2 5.8
22/08:33am 15.7 5.7 12.6 82 1.7 WNW 57 76 31 41 1012.0 1012.0 5.6
22/08:30am 16.1 6.4 11.7 75 2.4 WNW 54 65 29 35 1012.0 1012.0 5.6
22/08:14am 15.3 8.1 13.0 86 1.3 WNW 43 69 23 37 1012.1 1012.1 5.2
22/08:00am 14.8 5.2 12.2 84 1.4 WNW 54 69 29 37 1012.1 1012.1 5.2
22/07:52am 15.5 6.8 11.2 75 2.3 WNW 48 69 26 37 1011.9 1011.9 5.2
22/07:30am 16.1 7.2 10.6 70 2.9 WNW 48 57 26 31 1011.7 1011.7 5.0

Other Formats:

Comma delimited format used in spreadsheet applications
http://www.bom.gov.au/fwo/IDW60801/IDW60801.94601.axf

JavaScript Object Notation format (JSON) in row-major order
http://www.bom.gov.au/fwo/IDW60801/IDW60801.94601.json